createdAt,value
2016-10-28T00:00:31.893Z,0
2016-10-28T00:01:40.598Z,0
2016-10-28T00:02:49.298Z,0
2016-10-28T00:03:57.994Z,0
2016-10-28T00:05:06.700Z,0
2016-10-28T00:06:15.401Z,0
2016-10-28T00:07:24.111Z,0
2016-10-28T00:08:32.815Z,0
2016-10-28T00:09:41.511Z,0
2016-10-28T00:10:50.253Z,0
2016-10-28T00:11:58.950Z,0
2016-10-28T00:13:07.656Z,0
2016-10-28T00:14:16.362Z,0
2016-10-28T00:15:25.065Z,0
2016-10-28T00:16:33.811Z,0
2016-10-28T00:17:42.507Z,0
2016-10-28T00:18:51.204Z,0
2016-10-28T00:19:59.942Z,0
2016-10-28T00:21:08.644Z,0
2016-10-28T00:22:17.349Z,0
2016-10-28T00:23:26.048Z,0
2016-10-28T00:24:34.752Z,0
2016-10-28T00:25:43.458Z,0
2016-10-28T00:26:52.158Z,0
2016-10-28T00:28:00.866Z,0
2016-10-28T00:29:09.599Z,0
2016-10-28T00:30:18.303Z,0
2016-10-28T00:31:27.038Z,0
2016-10-28T00:32:35.733Z,0
2016-10-28T00:33:44.429Z,0
2016-10-28T00:34:53.161Z,0
2016-10-28T00:36:01.861Z,0
2016-10-28T00:37:10.555Z,0
2016-10-28T00:38:19.299Z,0
2016-10-28T00:39:27.998Z,0
2016-10-28T00:40:36.739Z,0
2016-10-28T00:41:45.441Z,0
2016-10-28T00:42:54.138Z,0
2016-10-28T00:44:02.839Z,0
2016-10-28T00:45:11.545Z,0
2016-10-28T00:46:20.249Z,0
2016-10-28T00:47:28.945Z,0
2016-10-28T00:48:37.637Z,0
2016-10-28T00:49:46.344Z,0
2016-10-28T00:50:55.037Z,0
2016-10-28T00:52:03.734Z,0
2016-10-28T00:53:12.437Z,0
2016-10-28T00:54:21.133Z,0
2016-10-28T00:55:29.827Z,0
2016-10-28T00:56:38.524Z,0
2016-10-28T00:57:47.222Z,0
2016-10-28T00:58:55.920Z,0
2016-10-28T01:00:04.639Z,0
2016-10-28T01:01:13.339Z,0
2016-10-28T01:02:22.041Z,0
2016-10-28T01:03:30.743Z,0
2016-10-28T01:04:39.441Z,0
2016-10-28T01:05:48.151Z,0
2016-10-28T01:06:56.848Z,0
2016-10-28T01:08:05.556Z,0
2016-10-28T01:09:14.260Z,0
2016-10-28T01:10:22.958Z,0
2016-10-28T01:11:31.662Z,0
2016-10-28T01:12:40.366Z,0
2016-10-28T01:13:49.063Z,0
2016-10-28T01:14:57.761Z,0
2016-10-28T01:16:06.470Z,0
2016-10-28T01:17:15.173Z,0
2016-10-28T01:18:23.871Z,0
2016-10-28T01:19:32.567Z,0
2016-10-28T01:20:41.267Z,0
2016-10-28T01:21:50.021Z,0
2016-10-28T01:22:58.720Z,0
2016-10-28T01:24:07.417Z,0
2016-10-28T01:25:16.126Z,0
2016-10-28T01:26:24.829Z,0
2016-10-28T01:27:33.532Z,0
2016-10-28T01:28:42.238Z,0
2016-10-28T01:29:50.972Z,0
2016-10-28T01:30:59.669Z,0
2016-10-28T01:32:08.374Z,0
2016-10-28T01:33:17.089Z,0
2016-10-28T01:34:25.796Z,0
2016-10-28T01:35:34.495Z,0
2016-10-28T01:36:43.208Z,0
2016-10-28T01:37:51.905Z,0
2016-10-28T01:39:00.678Z,0
2016-10-28T01:40:09.382Z,0
2016-10-28T01:41:18.097Z,0
2016-10-28T01:42:26.798Z,0
2016-10-28T01:43:35.505Z,0
2016-10-28T01:44:44.212Z,0
2016-10-28T01:45:52.915Z,0
2016-10-28T01:47:01.615Z,0
2016-10-28T01:48:10.361Z,0
2016-10-28T01:49:19.061Z,0
2016-10-28T01:50:27.769Z,0
2016-10-28T01:51:36.475Z,0
2016-10-28T01:52:45.173Z,0
2016-10-28T01:53:53.875Z,0
2016-10-28T01:55:02.576Z,0
2016-10-28T01:56:11.591Z,0
2016-10-28T01:57:20.295Z,0
2016-10-28T01:58:28.993Z,0
2016-10-28T01:59:37.709Z,0
2016-10-28T02:00:46.407Z,0
2016-10-28T02:01:55.115Z,0
2016-10-28T02:03:03.815Z,0
2016-10-28T02:04:12.563Z,0
2016-10-28T02:05:21.266Z,0
2016-10-28T02:06:30.011Z,0
2016-10-28T02:07:38.708Z,0
2016-10-28T02:08:47.403Z,0
2016-10-28T02:09:56.106Z,0
2016-10-28T02:11:05.124Z,0
2016-10-28T02:12:13.817Z,0
2016-10-28T02:13:22.512Z,0
2016-10-28T02:14:31.212Z,0
2016-10-28T02:15:39.955Z,0
2016-10-28T02:16:48.701Z,0
2016-10-28T02:17:57.409Z,0
2016-10-28T02:19:06.112Z,0
2016-10-28T02:20:14.809Z,0
2016-10-28T02:21:23.515Z,0
2016-10-28T02:22:32.221Z,0
2016-10-28T02:23:40.923Z,0
2016-10-28T02:24:49.622Z,0
2016-10-28T02:25:58.353Z,0
2016-10-28T02:27:07.096Z,0
2016-10-28T02:28:15.833Z,0
2016-10-28T02:29:24.532Z,0
2016-10-28T02:30:33.271Z,0
2016-10-28T02:31:41.973Z,0
2016-10-28T02:32:50.677Z,0
2016-10-28T02:33:59.392Z,0
2016-10-28T02:35:08.111Z,0
2016-10-28T02:36:16.810Z,0
2016-10-28T02:37:25.515Z,0
2016-10-28T02:38:34.209Z,0
2016-10-28T02:39:42.946Z,0
2016-10-28T02:40:51.685Z,0
2016-10-28T02:42:00.388Z,0
2016-10-28T02:43:09.095Z,0
2016-10-28T02:44:17.797Z,0
2016-10-28T02:45:26.498Z,0
2016-10-28T02:46:35.200Z,0
2016-10-28T02:47:43.941Z,0
2016-10-28T02:48:52.649Z,0
2016-10-28T02:50:01.349Z,0
2016-10-28T02:51:10.087Z,0
2016-10-28T02:52:18.787Z,0
2016-10-28T02:53:27.485Z,0
2016-10-28T02:54:36.191Z,0
2016-10-28T02:55:44.887Z,0
2016-10-28T02:56:53.590Z,0
2016-10-28T02:58:02.291Z,0
2016-10-28T02:59:10.993Z,0
2016-10-28T03:00:20.003Z,0
2016-10-28T03:01:28.706Z,0
2016-10-28T03:02:37.445Z,0
2016-10-28T03:03:46.147Z,0
2016-10-28T03:04:54.854Z,0
2016-10-28T03:06:03.555Z,0
2016-10-28T03:07:12.255Z,0
2016-10-28T03:08:20.952Z,0
2016-10-28T03:09:30.008Z,0
2016-10-28T03:10:38.709Z,0
2016-10-28T03:11:47.411Z,0
2016-10-28T03:12:56.150Z,0
2016-10-28T03:14:04.852Z,0
2016-10-28T03:15:13.554Z,0
2016-10-28T03:16:22.251Z,0
2016-10-28T03:17:30.950Z,0
2016-10-28T03:18:39.649Z,0
2016-10-28T03:19:48.345Z,0
2016-10-28T03:20:57.042Z,0
2016-10-28T03:22:05.747Z,0
2016-10-28T03:23:14.456Z,0
2016-10-28T03:24:23.156Z,0
2016-10-28T03:25:31.895Z,0
2016-10-28T03:26:40.597Z,0
2016-10-28T03:27:49.313Z,0
2016-10-28T03:28:58.012Z,0
2016-10-28T03:30:06.739Z,0
2016-10-28T03:31:15.486Z,0
2016-10-28T03:32:24.186Z,0
2016-10-28T03:33:32.887Z,0
2016-10-28T03:34:41.593Z,0
2016-10-28T03:35:50.288Z,0
2016-10-28T03:36:59.038Z,0
2016-10-28T03:38:07.737Z,0
2016-10-28T03:39:16.452Z,0
2016-10-28T03:40:25.153Z,0
2016-10-28T03:41:33.855Z,0
2016-10-28T03:42:42.548Z,0
2016-10-28T03:43:51.241Z,0
2016-10-28T03:44:59.944Z,0
2016-10-28T03:46:08.645Z,0
2016-10-28T03:47:17.352Z,0
2016-10-28T03:48:26.092Z,0
2016-10-28T03:49:34.795Z,0
2016-10-28T03:50:43.496Z,0
2016-10-28T03:51:52.191Z,0
2016-10-28T03:53:00.891Z,0
2016-10-28T03:54:09.590Z,0
2016-10-28T03:55:18.287Z,0
2016-10-28T03:56:26.988Z,0
2016-10-28T03:57:35.723Z,0
2016-10-28T03:58:44.427Z,0
2016-10-28T03:59:53.123Z,0
2016-10-28T04:01:01.834Z,0
2016-10-28T04:02:10.531Z,0
2016-10-28T04:03:19.225Z,0
2016-10-28T04:04:27.923Z,0
2016-10-28T04:05:36.660Z,0
2016-10-28T04:06:45.363Z,0
2016-10-28T04:07:54.066Z,0
2016-10-28T04:09:02.763Z,0
2016-10-28T04:10:11.463Z,0
2016-10-28T04:11:20.183Z,0
2016-10-28T04:12:28.890Z,0
2016-10-28T04:13:37.595Z,0
2016-10-28T04:14:46.298Z,0
2016-10-28T04:15:55.035Z,0
2016-10-28T04:17:04.050Z,0
2016-10-28T04:18:12.756Z,0
2016-10-28T04:19:21.458Z,0
2016-10-28T04:20:30.161Z,0
2016-10-28T04:21:38.859Z,0
2016-10-28T04:22:47.563Z,0
2016-10-28T04:23:56.260Z,0
2016-10-28T04:25:04.963Z,0
2016-10-28T04:26:13.662Z,0
2016-10-28T04:27:22.355Z,0
2016-10-28T04:28:31.047Z,0
2016-10-28T04:29:39.745Z,0
2016-10-28T04:30:48.440Z,0
2016-10-28T04:31:57.141Z,0
2016-10-28T04:33:05.886Z,0
2016-10-28T04:34:14.586Z,0
2016-10-28T04:35:23.346Z,0
2016-10-28T04:36:32.086Z,0
2016-10-28T04:37:40.786Z,0
2016-10-28T04:38:49.494Z,0
2016-10-28T04:39:58.190Z,0
2016-10-28T04:41:07.206Z,0
2016-10-28T04:42:15.905Z,0
2016-10-28T04:43:24.604Z,0
2016-10-28T04:44:33.306Z,0
2016-10-28T04:45:42.014Z,0
2016-10-28T04:46:50.715Z,0
2016-10-28T04:47:59.412Z,0
2016-10-28T04:49:08.121Z,0
2016-10-28T04:50:16.820Z,0
2016-10-28T04:51:25.521Z,0
2016-10-28T04:52:34.223Z,0
2016-10-28T04:53:42.923Z,0
2016-10-28T04:54:51.623Z,0
2016-10-28T04:56:00.323Z,0
2016-10-28T04:57:09.025Z,0
2016-10-28T04:58:17.756Z,0
2016-10-28T04:59:26.784Z,0
2016-10-28T05:00:35.503Z,0
2016-10-28T05:01:44.235Z,0
2016-10-28T05:02:52.936Z,0
2016-10-28T05:04:01.628Z,0
2016-10-28T05:05:10.323Z,0
2016-10-28T05:06:19.025Z,0
2016-10-28T05:07:27.723Z,0
2016-10-28T05:08:36.470Z,0
2016-10-28T05:09:45.169Z,0
2016-10-28T05:10:53.878Z,0
2016-10-28T05:12:02.572Z,0
2016-10-28T05:13:11.276Z,0
2016-10-28T05:14:20.009Z,0
2016-10-28T05:15:28.749Z,0
2016-10-28T05:16:37.471Z,0
2016-10-28T05:17:46.252Z,0
2016-10-28T05:18:54.950Z,0
2016-10-28T05:20:03.652Z,0
2016-10-28T05:21:12.349Z,0
2016-10-28T05:22:21.050Z,0
2016-10-28T05:23:29.759Z,0
2016-10-28T05:24:38.459Z,0
2016-10-28T05:25:47.159Z,0
2016-10-28T05:26:55.892Z,0
2016-10-28T05:28:04.945Z,0
2016-10-28T05:29:13.647Z,0
2016-10-28T05:30:22.344Z,0
2016-10-28T05:31:31.078Z,0
2016-10-28T05:32:39.775Z,0
2016-10-28T05:33:48.472Z,0
2016-10-28T05:34:57.487Z,0
2016-10-28T05:36:06.194Z,0
2016-10-28T05:37:14.932Z,0
2016-10-28T05:38:23.635Z,0
2016-10-28T05:39:32.333Z,0
2016-10-28T05:40:41.035Z,0
2016-10-28T05:41:49.735Z,0
2016-10-28T05:42:58.461Z,0
2016-10-28T05:44:07.208Z,0
2016-10-28T05:45:15.909Z,0
2016-10-28T05:46:24.604Z,0
2016-10-28T05:47:33.302Z,0
2016-10-28T05:48:41.998Z,0
2016-10-28T05:49:50.694Z,0
2016-10-28T05:50:59.432Z,4
2016-10-28T05:52:08.136Z,4
2016-10-28T05:53:16.839Z,0
2016-10-28T05:54:25.537Z,0
2016-10-28T05:55:34.236Z,4
2016-10-28T05:56:42.933Z,4
2016-10-28T05:57:51.631Z,4
2016-10-28T05:59:00.674Z,4
2016-10-28T06:00:09.372Z,8
2016-10-28T06:01:18.122Z,8
2016-10-28T06:02:26.831Z,12
2016-10-28T06:03:35.533Z,12
2016-10-28T06:04:44.238Z,16
2016-10-28T06:05:52.936Z,16
2016-10-28T06:07:01.641Z,20
2016-10-28T06:08:10.341Z,24
2016-10-28T06:09:19.044Z,28
2016-10-28T06:10:27.769Z,32
2016-10-28T06:11:36.468Z,36
2016-10-28T06:12:45.175Z,40
2016-10-28T06:13:53.873Z,48
2016-10-28T06:15:02.578Z,56
2016-10-28T06:16:11.308Z,60
2016-10-28T06:17:20.006Z,72
2016-10-28T06:18:28.710Z,80
2016-10-28T06:19:37.443Z,88
2016-10-28T06:20:46.140Z,104
2016-10-28T06:21:54.870Z,116
2016-10-28T06:23:03.570Z,128
2016-10-28T06:24:12.279Z,140
2016-10-28T06:25:20.978Z,156
2016-10-28T06:26:29.677Z,172
2016-10-28T06:27:38.376Z,188
2016-10-28T06:28:47.072Z,208
2016-10-28T06:29:55.773Z,224
2016-10-28T06:31:04.476Z,244
2016-10-28T06:32:13.209Z,264
2016-10-28T06:33:21.909Z,288
2016-10-28T06:34:30.609Z,308
2016-10-28T06:35:39.310Z,332
2016-10-28T06:36:48.009Z,356
2016-10-28T06:37:56.705Z,376
2016-10-28T06:39:05.407Z,404
2016-10-28T06:40:14.109Z,428
2016-10-28T06:41:22.806Z,456
2016-10-28T06:42:31.501Z,480
2016-10-28T06:43:40.194Z,512
2016-10-28T06:44:48.895Z,536
2016-10-28T06:45:57.591Z,564
2016-10-28T06:47:06.337Z,592
2016-10-28T06:48:15.035Z,624
2016-10-28T06:49:23.731Z,648
2016-10-28T06:50:32.424Z,680
2016-10-28T06:51:41.117Z,708
2016-10-28T06:52:49.820Z,736
2016-10-28T06:53:58.557Z,768
2016-10-28T06:55:07.296Z,792
2016-10-28T06:56:16.306Z,824
2016-10-28T06:57:25.349Z,856
2016-10-28T06:58:34.054Z,888
2016-10-28T06:59:42.761Z,916
2016-10-28T07:00:51.451Z,948
2016-10-28T07:02:00.148Z,980
2016-10-28T07:03:08.852Z,1016
2016-10-28T07:04:17.551Z,1044
2016-10-28T07:05:26.248Z,1076
2016-10-28T07:06:34.981Z,1128
2016-10-28T07:07:43.727Z,1200
2016-10-28T07:08:52.424Z,1208
2016-10-28T07:10:01.175Z,1232
2016-10-28T07:11:09.869Z,1252
2016-10-28T07:12:18.575Z,1284
2016-10-28T07:13:27.267Z,1288
2016-10-28T07:14:35.973Z,1308
2016-10-28T07:15:45.922Z,1336
2016-10-28T07:16:54.623Z,1364
2016-10-28T07:18:03.323Z,1396
2016-10-28T07:19:12.022Z,1420
2016-10-28T07:20:20.749Z,1452
2016-10-28T07:21:29.447Z,1480
2016-10-28T07:22:38.312Z,1500
2016-10-28T07:23:47.061Z,1528
2016-10-28T07:24:55.763Z,1552
2016-10-28T07:26:04.463Z,1572
2016-10-28T07:27:13.154Z,1596
2016-10-28T07:28:21.850Z,1624
2016-10-28T07:29:30.586Z,1664
2016-10-28T07:30:39.295Z,1692
2016-10-28T07:31:48.003Z,1712
2016-10-28T07:32:56.710Z,1720
2016-10-28T07:34:05.413Z,1728
2016-10-28T07:35:14.114Z,1736
2016-10-28T07:36:22.828Z,1748
2016-10-28T07:37:31.535Z,1764
2016-10-28T07:38:40.229Z,1776
2016-10-28T07:39:48.937Z,1792
2016-10-28T07:40:57.641Z,1812
2016-10-28T07:42:06.349Z,1828
2016-10-28T07:43:15.058Z,1848
2016-10-28T07:44:23.919Z,1864
2016-10-28T07:45:32.660Z,1884
2016-10-28T07:46:41.365Z,1900
2016-10-28T07:47:50.069Z,1920
2016-10-28T07:48:58.812Z,1932
2016-10-28T07:50:07.512Z,1952
2016-10-28T07:51:16.214Z,1964
2016-10-28T07:52:24.912Z,1980
2016-10-28T07:53:33.615Z,1992
2016-10-28T07:54:42.312Z,2012
2016-10-28T07:55:51.010Z,2024
2016-10-28T07:56:59.713Z,2044
2016-10-28T07:58:08.417Z,2060
2016-10-28T07:59:17.119Z,2076
2016-10-28T08:00:25.820Z,2088
2016-10-28T08:01:34.525Z,2104
2016-10-28T08:02:43.224Z,2116
2016-10-28T08:03:51.931Z,2128
2016-10-28T08:05:00.636Z,2140
2016-10-28T08:06:09.338Z,2152
2016-10-28T08:07:18.048Z,2164
2016-10-28T08:08:26.752Z,2180
2016-10-28T08:09:35.449Z,2196
2016-10-28T08:10:44.165Z,2204
2016-10-28T08:11:52.868Z,2216
2016-10-28T08:13:01.572Z,2232
2016-10-28T08:14:10.282Z,2240
2016-10-28T08:15:18.991Z,2256
2016-10-28T08:16:27.689Z,2264
2016-10-28T08:17:36.390Z,2276
2016-10-28T08:18:45.092Z,2288
2016-10-28T08:19:53.791Z,2296
2016-10-28T08:21:02.484Z,2308
2016-10-28T08:22:11.252Z,2316
2016-10-28T08:23:19.947Z,2328
2016-10-28T08:24:28.647Z,2336
2016-10-28T08:25:37.348Z,2348
2016-10-28T08:26:46.048Z,2352
2016-10-28T08:27:54.743Z,2360
2016-10-28T08:29:03.447Z,2372
2016-10-28T08:30:12.145Z,2380
2016-10-28T08:31:20.932Z,2380
2016-10-28T08:32:29.636Z,2384
2016-10-28T08:33:38.380Z,2392
2016-10-28T08:34:47.080Z,2396
2016-10-28T08:35:55.789Z,2408
2016-10-28T08:37:04.487Z,2412
2016-10-28T08:38:13.194Z,2420
2016-10-28T08:39:21.898Z,2428
2016-10-28T08:40:30.599Z,2444
2016-10-28T08:41:39.300Z,2452
2016-10-28T08:42:48.032Z,2464
2016-10-28T08:43:56.740Z,2476
2016-10-28T08:45:05.450Z,2488
2016-10-28T08:46:14.149Z,2504
2016-10-28T08:47:22.848Z,2528
2016-10-28T08:48:31.543Z,2552
2016-10-28T08:49:40.247Z,2568
2016-10-28T08:50:49.301Z,2576
2016-10-28T08:51:58.003Z,2580
2016-10-28T08:53:06.757Z,2584
2016-10-28T08:54:15.458Z,2592
2016-10-28T08:55:24.157Z,2596
2016-10-28T08:56:32.862Z,2612
2016-10-28T08:57:41.568Z,2620
2016-10-28T08:58:50.274Z,2636
2016-10-28T08:59:58.977Z,2644
2016-10-28T09:01:07.684Z,2660
2016-10-28T09:02:16.384Z,2664
2016-10-28T09:03:25.082Z,2668
2016-10-28T09:04:33.796Z,2668
2016-10-28T09:05:42.533Z,2668
2016-10-28T09:06:51.227Z,2668
2016-10-28T09:07:59.928Z,2672
2016-10-28T09:09:08.637Z,2684
2016-10-28T09:10:17.337Z,2696
2016-10-28T09:11:26.035Z,2704
2016-10-28T09:12:34.741Z,2708
2016-10-28T09:13:43.444Z,2716
2016-10-28T09:14:52.147Z,2720
2016-10-28T09:16:00.894Z,2728
2016-10-28T09:17:09.597Z,2732
2016-10-28T09:18:18.324Z,2736
2016-10-28T09:19:27.033Z,2736
2016-10-28T09:20:35.741Z,2748
2016-10-28T09:21:44.436Z,2760
2016-10-28T09:22:53.138Z,2768
2016-10-28T09:24:01.837Z,2780
2016-10-28T09:25:10.546Z,2792
2016-10-28T09:26:19.249Z,2808
2016-10-28T09:27:27.957Z,2824
2016-10-28T09:28:36.663Z,2840
2016-10-28T09:29:45.360Z,2864
2016-10-28T09:30:54.059Z,2884
2016-10-28T09:32:02.757Z,2888
2016-10-28T09:33:11.456Z,2896
2016-10-28T09:34:20.161Z,2904
2016-10-28T09:35:28.861Z,2908
2016-10-28T09:36:37.566Z,2900
2016-10-28T09:37:46.280Z,2900
2016-10-28T09:38:54.981Z,2912
2016-10-28T09:40:03.683Z,2924
2016-10-28T09:41:12.386Z,2928
2016-10-28T09:42:21.087Z,2936
2016-10-28T09:43:29.834Z,2936
2016-10-28T09:44:38.539Z,2952
2016-10-28T09:45:47.235Z,2948
2016-10-28T09:46:55.942Z,2948
2016-10-28T09:48:04.646Z,2952
2016-10-28T09:49:13.347Z,2960
2016-10-28T09:50:22.046Z,2964
2016-10-28T09:51:30.752Z,2972
2016-10-28T09:52:39.488Z,2980
2016-10-28T09:53:48.196Z,2988
2016-10-28T09:54:56.910Z,2992
2016-10-28T09:56:05.612Z,2996
2016-10-28T09:57:14.315Z,3012
2016-10-28T09:58:23.016Z,3008
2016-10-28T09:59:31.721Z,3012
2016-10-28T10:00:40.466Z,3028
2016-10-28T10:01:49.171Z,3032
2016-10-28T10:02:57.874Z,3040
2016-10-28T10:04:06.580Z,3048
2016-10-28T10:05:15.276Z,3048
2016-10-28T10:06:23.981Z,3056
2016-10-28T10:07:32.681Z,3064
2016-10-28T10:08:41.396Z,3072
2016-10-28T10:09:50.138Z,3084
2016-10-28T10:10:58.861Z,3092
2016-10-28T10:12:07.569Z,3100
2016-10-28T10:13:16.274Z,3108
2016-10-28T10:14:24.973Z,3112
2016-10-28T10:15:33.670Z,3116
2016-10-28T10:16:42.372Z,3124
2016-10-28T10:17:51.078Z,3132
2016-10-28T10:18:59.780Z,3144
2016-10-28T10:20:08.487Z,3152
2016-10-28T10:21:17.187Z,3156
2016-10-28T10:22:25.887Z,3164
2016-10-28T10:23:34.586Z,3172
2016-10-28T10:24:43.288Z,3180
2016-10-28T10:25:51.987Z,3192
2016-10-28T10:27:00.698Z,3220
2016-10-28T10:28:09.405Z,3240
2016-10-28T10:29:18.112Z,3260
2016-10-28T10:30:26.816Z,3304
2016-10-28T10:31:35.524Z,3428
2016-10-28T10:32:44.236Z,7772
2016-10-28T10:33:53.252Z,20896
2016-10-28T10:35:01.991Z,24768
2016-10-28T10:36:10.692Z,25184
2016-10-28T10:37:19.388Z,25504
2016-10-28T10:38:28.101Z,26080
2016-10-28T10:39:36.810Z,26464
2016-10-28T10:40:45.526Z,25760
2016-10-28T10:41:54.227Z,26016
2016-10-28T10:43:02.928Z,26016
2016-10-28T10:44:11.630Z,26720
2016-10-28T10:45:20.332Z,26528
2016-10-28T10:46:29.087Z,26368
2016-10-28T10:47:37.835Z,25728
2016-10-28T10:48:46.539Z,25792
2016-10-28T10:49:55.245Z,26688
2016-10-28T10:51:03.967Z,27584
2016-10-28T10:52:12.669Z,27296
2016-10-28T10:53:21.381Z,27040
2016-10-28T10:54:30.090Z,27328
2016-10-28T10:55:38.796Z,27520
2016-10-28T10:56:47.499Z,27616
2016-10-28T10:57:56.210Z,27392
2016-10-28T10:59:04.927Z,27616
2016-10-28T11:00:13.644Z,28224
2016-10-28T11:01:22.344Z,28096
2016-10-28T11:02:31.049Z,27648
2016-10-28T11:03:39.758Z,28064
2016-10-28T11:04:48.466Z,28576
2016-10-28T11:05:57.170Z,28480
2016-10-28T11:07:05.882Z,27648
2016-10-28T11:08:14.590Z,28864
2016-10-28T11:09:23.301Z,28992
2016-10-28T11:10:32.061Z,29632
2016-10-28T11:11:40.778Z,29440
2016-10-28T11:12:49.517Z,28672
2016-10-28T11:13:58.537Z,28704
2016-10-28T11:15:07.246Z,28512
2016-10-28T11:16:15.956Z,27904
2016-10-28T11:17:25.130Z,28032
2016-10-28T11:18:33.847Z,27616
2016-10-28T11:19:42.556Z,27904
2016-10-28T11:20:51.264Z,27904
2016-10-28T11:21:59.974Z,28032
2016-10-28T11:23:08.681Z,28352
2016-10-28T11:24:17.423Z,27552
2016-10-28T11:25:26.136Z,27840
2016-10-28T11:26:34.883Z,28192
2016-10-28T11:27:43.602Z,28608
2016-10-28T11:28:52.312Z,28160
2016-10-28T11:30:01.019Z,29280
2016-10-28T11:31:09.728Z,29664
2016-10-28T11:32:18.481Z,29920
2016-10-28T11:33:27.190Z,31680
2016-10-28T11:34:35.908Z,31584
2016-10-28T11:35:44.621Z,32000
2016-10-28T11:36:53.331Z,32768
2016-10-28T11:38:02.038Z,31936
2016-10-28T11:39:10.755Z,28160
2016-10-28T11:40:19.465Z,21280
2016-10-28T11:41:28.173Z,17056
2016-10-28T11:42:36.922Z,15840
2016-10-28T11:43:45.629Z,14912
2016-10-28T11:44:54.340Z,13792
2016-10-28T11:46:03.083Z,12920
2016-10-28T11:47:11.897Z,12476
2016-10-28T11:48:20.634Z,12308
2016-10-28T11:49:29.358Z,12272
2016-10-28T11:50:38.066Z,12252
2016-10-28T11:51:46.772Z,12264
2016-10-28T11:52:55.488Z,12368
2016-10-28T11:54:04.243Z,12260
2016-10-28T11:55:12.957Z,12264
2016-10-28T11:56:21.668Z,12348
2016-10-28T11:57:30.386Z,12312
2016-10-28T11:58:39.105Z,12260
2016-10-28T11:59:47.815Z,12648
2016-10-28T12:00:56.523Z,12552
2016-10-28T12:02:05.239Z,12604
2016-10-28T12:03:14.386Z,12564
2016-10-28T12:04:23.462Z,12752
2016-10-28T12:05:32.170Z,12764
2016-10-28T12:06:40.882Z,12772
2016-10-28T12:07:49.602Z,12764
2016-10-28T12:08:58.354Z,12848
2016-10-28T12:10:07.063Z,12868
2016-10-28T12:11:15.784Z,13020
2016-10-28T12:12:24.805Z,13096
2016-10-28T12:13:33.519Z,13380
2016-10-28T12:14:42.251Z,13388
2016-10-28T12:15:51.278Z,13808
2016-10-28T12:16:59.990Z,14624
2016-10-28T12:18:08.736Z,15040
2016-10-28T12:19:17.452Z,14832
2016-10-28T12:20:26.167Z,14520
2016-10-28T12:21:34.880Z,14360
2016-10-28T12:22:43.618Z,14288
2016-10-28T12:23:52.327Z,14228
2016-10-28T12:25:01.041Z,14200
2016-10-28T12:26:09.750Z,14108
2016-10-28T12:27:18.514Z,14076
2016-10-28T12:28:27.222Z,14156
2016-10-28T12:29:35.927Z,14132
2016-10-28T12:30:44.642Z,14228
2016-10-28T12:31:53.358Z,14324
2016-10-28T12:33:02.072Z,14532
2016-10-28T12:34:10.791Z,14504
2016-10-28T12:35:19.611Z,14752
2016-10-28T12:36:28.324Z,14880
2016-10-28T12:37:37.354Z,15040
2016-10-28T12:38:46.073Z,15072
2016-10-28T12:39:54.828Z,15296
2016-10-28T12:41:03.538Z,15168
2016-10-28T12:42:12.257Z,14100
2016-10-28T12:43:21.281Z,12800
2016-10-28T12:44:30.028Z,13904
2016-10-28T12:45:38.740Z,12736
2016-10-28T12:46:47.454Z,11764
2016-10-28T12:47:56.172Z,10820
2016-10-28T12:49:04.888Z,9524
2016-10-28T12:50:13.632Z,8460
2016-10-28T12:51:22.383Z,9636
2016-10-28T12:52:31.090Z,8336
2016-10-28T12:53:39.803Z,7732
2016-10-28T12:54:48.836Z,7708
2016-10-28T12:55:57.544Z,7884
2016-10-28T12:57:06.297Z,7480
2016-10-28T12:58:15.055Z,8116
2016-10-28T12:59:23.802Z,9304
2016-10-28T13:00:32.511Z,10548
2016-10-28T13:01:41.250Z,9968
2016-10-28T13:02:49.997Z,8488
2016-10-28T13:03:58.703Z,5712
2016-10-28T13:05:07.414Z,5192
2016-10-28T13:06:16.437Z,4380
2016-10-28T13:07:25.155Z,4656
2016-10-28T13:08:33.919Z,4684
2016-10-28T13:09:42.626Z,4748
2016-10-28T13:10:51.367Z,5024
2016-10-28T13:12:00.074Z,5184
2016-10-28T13:13:09.151Z,5044
2016-10-28T13:14:17.860Z,5968
2016-10-28T13:15:26.566Z,6544
2016-10-28T13:16:35.277Z,6252
2016-10-28T13:17:43.991Z,8256
2016-10-28T13:18:53.013Z,7180
2016-10-28T13:20:01.725Z,10972
2016-10-28T13:21:10.429Z,15360
2016-10-28T13:22:19.135Z,15168
2016-10-28T13:23:27.840Z,8216
2016-10-28T13:24:36.555Z,6896
2016-10-28T13:25:45.259Z,7348
2016-10-28T13:26:53.970Z,3888
2016-10-28T13:28:03.077Z,4240
2016-10-28T13:29:11.821Z,4712
2016-10-28T13:30:20.840Z,5508
2016-10-28T13:31:29.554Z,5808
2016-10-28T13:32:38.261Z,3612
2016-10-28T13:33:46.967Z,5172
2016-10-28T13:34:55.672Z,12808
2016-10-28T13:36:04.413Z,17536
2016-10-28T13:37:13.119Z,13344
2016-10-28T13:38:21.825Z,11532
2016-10-28T13:39:30.534Z,12552
2016-10-28T13:40:39.265Z,10524
2016-10-28T13:41:47.971Z,6728
2016-10-28T13:42:56.993Z,3724
2016-10-28T13:44:05.703Z,3268
2016-10-28T13:45:14.412Z,3852
2016-10-28T13:46:23.116Z,3880
2016-10-28T13:47:31.824Z,5060
2016-10-28T13:48:40.533Z,6004
2016-10-28T13:49:49.238Z,4636
2016-10-28T13:50:57.945Z,3132
2016-10-28T13:52:06.689Z,3984
2016-10-28T13:53:15.390Z,3648
2016-10-28T13:54:24.101Z,2952
2016-10-28T13:55:32.802Z,2628
2016-10-28T13:56:41.512Z,2684
2016-10-28T13:57:50.217Z,2676
2016-10-28T13:58:58.970Z,2572
2016-10-28T14:00:07.993Z,2564
2016-10-28T14:01:16.699Z,2544
2016-10-28T14:02:25.404Z,2532
2016-10-28T14:03:34.125Z,2520
2016-10-28T14:04:42.833Z,2472
2016-10-28T14:05:51.541Z,2460
2016-10-28T14:07:00.285Z,2452
2016-10-28T14:08:08.993Z,2428
2016-10-28T14:09:17.699Z,2388
2016-10-28T14:10:26.409Z,2340
2016-10-28T14:11:35.115Z,2300
2016-10-28T14:12:43.815Z,2268
2016-10-28T14:13:52.516Z,2240
2016-10-28T14:15:01.221Z,2220
2016-10-28T14:16:09.919Z,2192
2016-10-28T14:17:18.627Z,2172
2016-10-28T14:18:27.330Z,2152
2016-10-28T14:19:36.081Z,2132
2016-10-28T14:20:44.789Z,2112
2016-10-28T14:21:53.491Z,2092
2016-10-28T14:23:02.197Z,2068
2016-10-28T14:24:10.905Z,2052
2016-10-28T14:25:19.642Z,2028
2016-10-28T14:26:28.344Z,2004
2016-10-28T14:27:37.051Z,1984
2016-10-28T14:28:45.752Z,1956
2016-10-28T14:29:54.452Z,1932
2016-10-28T14:31:03.153Z,1908
2016-10-28T14:32:11.894Z,1884
2016-10-28T14:33:20.618Z,1860
2016-10-28T14:34:29.323Z,1832
2016-10-28T14:35:38.027Z,1804
2016-10-28T14:36:46.736Z,1780
2016-10-28T14:37:55.446Z,1756
2016-10-28T14:39:04.186Z,1728
2016-10-28T14:40:12.942Z,1700
2016-10-28T14:41:21.675Z,1672
2016-10-28T14:42:30.385Z,1648
2016-10-28T14:43:39.086Z,1620
2016-10-28T14:44:47.790Z,1592
2016-10-28T14:45:56.492Z,1564
2016-10-28T14:47:05.197Z,1528
2016-10-28T14:48:13.911Z,1500
2016-10-28T14:49:22.615Z,1468
2016-10-28T14:50:31.319Z,1432
2016-10-28T14:51:40.017Z,1400
2016-10-28T14:52:48.720Z,1364
2016-10-28T14:53:57.457Z,1332
2016-10-28T14:55:06.164Z,1296
2016-10-28T14:56:15.291Z,1264
2016-10-28T14:57:23.989Z,1228
2016-10-28T14:58:32.692Z,1196
2016-10-28T14:59:41.396Z,1160
2016-10-28T15:00:50.102Z,1124
2016-10-28T15:01:58.805Z,1092
2016-10-28T15:03:07.514Z,1056
2016-10-28T15:04:16.246Z,1024
2016-10-28T15:05:24.953Z,988
2016-10-28T15:06:33.663Z,956
2016-10-28T15:07:42.361Z,916
2016-10-28T15:08:51.061Z,884
2016-10-28T15:09:59.766Z,848
2016-10-28T15:11:08.475Z,816
2016-10-28T15:12:17.178Z,780
2016-10-28T15:13:25.890Z,748
2016-10-28T15:14:34.598Z,712
2016-10-28T15:15:43.297Z,680
2016-10-28T15:16:51.994Z,644
2016-10-28T15:18:00.692Z,612
2016-10-28T15:19:09.394Z,580
2016-10-28T15:20:18.100Z,544
2016-10-28T15:21:26.800Z,512
2016-10-28T15:22:35.500Z,484
2016-10-28T15:23:44.201Z,456
2016-10-28T15:24:52.911Z,424
2016-10-28T15:26:01.608Z,396
2016-10-28T15:27:10.309Z,372
2016-10-28T15:28:19.011Z,344
2016-10-28T15:29:27.713Z,324
2016-10-28T15:30:36.795Z,300
2016-10-28T15:31:45.533Z,276
2016-10-28T15:32:54.241Z,252
2016-10-28T15:34:02.990Z,232
2016-10-28T15:35:11.694Z,216
2016-10-28T15:36:20.399Z,196
2016-10-28T15:37:29.102Z,180
2016-10-28T15:38:37.803Z,164
2016-10-28T15:39:46.503Z,148
2016-10-28T15:40:55.203Z,136
2016-10-28T15:42:03.920Z,124
2016-10-28T15:43:12.939Z,108
2016-10-28T15:44:21.640Z,100
2016-10-28T15:45:30.446Z,88
2016-10-28T15:46:39.145Z,76
2016-10-28T15:47:47.850Z,68
2016-10-28T15:48:56.554Z,64
2016-10-28T15:50:05.254Z,52